Latest Weather Observations for Mount Boyce

IDN60901

Issued at 8:45 pm EST Sunday 20 April 2014 (issued every 10 minutes, with the page automatically refreshed every 10 minutes)

About weather observations | Map of Sydney area stations | Latest observations for Sydney area | Other Formats
Station Details ID: 063292 Name: MOUNT BOYCE AWS Lat: -33.62 Lon: 150.27 Height: 1080.0 m
Data from the previous 72 hours. | See also: Recent months at Mount Boyce
Date/Time
EST
Tmp

°C
App
Tmp
°C
Dew
Point
°C
Rel
Hum
%
Delta-T

°C
Wind Press
QNH
hPa
Press
MSL
hPa
Rain
since
9 am
mm
Dir
 
Spd
km/h
Gust
km/h
Spd
kts
Gust
kts
20/08:30pm 8.7 5.0 4.5 75 2.0 W 13 19 7 10 - - 0.0
20/08:00pm 9.5 5.1 4.9 73 2.2 W 17 24 9 13 - - 0.0
20/07:30pm 10.3 6.5 5.7 73 2.3 W 15 20 8 11 - - 0.0
20/07:00pm 10.8 7.8 5.8 71 2.5 W 11 17 6 9 - - 0.0
20/06:30pm 11.0 8.2 5.1 67 2.9 WSW 9 13 5 7 - - 0.0
20/06:00pm 11.4 8.6 5.1 65 3.1 W 9 15 5 8 - - 0.0
20/05:30pm 12.2 8.5 4.4 59 3.8 W 13 20 7 11 - - 0.0
20/05:00pm 13.9 10.1 3.9 51 4.8 W 13 22 7 12 - - 0.0
20/04:30pm 14.7 10.6 4.4 50 5.1 W 15 24 8 13 - - 0.0
20/04:00pm 15.7 11.8 3.5 44 5.9 WNW 13 19 7 10 - - 0.0
20/03:30pm 15.4 10.0 -1.2 32 7.3 W 17 26 9 14 - - 0.0
20/03:00pm 15.6 10.5 4.0 46 5.7 W 20 28 11 15 - - 0.0
20/02:30pm 16.9 13.6 8.1 56 4.7 WSW 15 26 8 14 - - 0.0
20/02:00pm 16.5 13.2 6.3 51 5.3 WSW 13 20 7 11 - - 0.0
20/01:30pm 16.2 12.6 5.2 48 5.6 W 13 19 7 10 - - 0.0
20/01:00pm 16.2 13.4 6.9 54 4.9 W 11 19 6 10 - - 0.0
20/12:30pm 15.3 12.9 6.8 57 4.4 W 9 13 5 7 - - 0.0
20/12:00pm 15.4 13.2 7.7 60 4.1 WNW 9 17 5 9 - - 0.0
20/11:30am 13.6 11.2 7.2 65 3.3 WNW 9 15 5 8 - - 0.0
20/11:00am 12.6 9.6 7.7 72 2.5 W 13 17 7 9 - - 0.0
20/10:30am 12.1 9.9 8.0 76 2.1 W 9 11 5 6 - - 0.0
20/10:00am 12.7 9.9 7.0 68 2.9 NW 11 24 6 13 - - 0.0
20/09:30am 13.0 11.0 8.5 74 2.4 N 9 22 5 12 - - 0.0
20/09:08am 11.4 8.8 7.9 79 1.8 N 11 15 6 8 - - 0.0
20/09:00am 11.0 8.1 8.2 83 1.5 N 13 20 7 11 - - 0.2
20/08:30am 11.0 9.2 9.6 91 0.7 N 9 17 5 9 - - 0.2
20/08:28am 10.6 8.7 9.0 90 0.8 N 9 17 5 9 - - 0.2
20/08:26am 10.3 7.9 8.7 90 0.8 N 11 17 6 9 - - 0.2
20/08:00am 9.4 7.9 8.6 95 0.4 N 6 13 3 7 - - 0.2
20/07:30am 8.1 5.8 7.5 96 0.3 NNE 9 15 5 8 - - 0.2
20/07:28am 8.0 5.7 7.4 96 0.3 NNE 9 15 5 8 - - 0.2
20/07:00am 7.5 5.1 7.1 97 0.2 NNE 9 13 5 7 - - 0.2
20/06:43am 7.0 4.8 6.4 96 0.3 NNE 7 13 4 7 - - 0.0
20/06:30am 6.8 4.6 6.2 96 0.3 NNE 7 11 4 6 - - 0.0
20/06:00am 6.7 4.5 6.1 96 0.3 NE 7 13 4 7 - - 0.0
20/05:58am 6.8 4.6 6.2 96 0.3 NNE 7 13 4 7 - - 0.0
20/05:44am 6.9 4.8 6.5 97 0.2 NNE 7 13 4 7 - - 0.0
20/05:30am 6.8 4.6 6.4 97 0.2 N 7 13 4 7 - - 0.0
20/05:00am 5.9 3.5 5.3 96 0.3 ENE 7 11 4 6 - - 0.0
20/04:41am 6.1 4.0 5.7 97 0.2 ENE 6 11 3 6 - - 0.0
20/04:31am 6.2 3.9 5.8 97 0.2 ENE 7 13 4 7 - - 0.0
20/04:30am 6.3 4.0 5.9 97 0.2 ENE 7 13 4 7 - - 0.0
20/04:21am 6.2 4.4 5.6 96 0.3 ENE 4 9 2 5 - - 0.0
20/04:11am 6.1 4.7 5.5 96 0.3 NE 2 7 1 4 - - 0.0
20/04:00am 5.6 3.3 4.9 95 0.3 ENE 6 11 3 6 - - 0.0
20/03:30am 5.3 2.7 4.1 92 0.5 ENE 7 9 4 5 - - 0.0
20/03:00am 6.4 4.2 5.4 93 0.5 NNE 6 9 3 5 - - 0.0
20/02:30am 6.2 5.1 5.0 92 0.6 CALM 0 0 0 0 - - 0.0
20/02:04am 6.7 5.7 5.8 94 0.4 CALM 0 7 0 4 - - 0.0
20/02:00am 6.8 5.5 6.1 95 0.3 NE 2 7 1 4 - - 0.0
20/01:30am 6.2 3.9 5.8 97 0.2 ENE 7 13 4 7 - - 0.0
20/01:05am 5.3 3.0 4.6 95 0.3 ENE 6 7 3 4 - - 0.0
20/01:00am 5.2 2.9 4.6 96 0.3 ENE 6 9 3 5 - - 0.0
20/12:30am 5.3 2.8 4.6 95 0.3 ENE 7 9 4 5 - - 0.0
20/12:00am 5.4 2.9 4.7 95 0.3 ENE 7 9 4 5 - - 0.0
 
Date/Time
EST
Tmp

°C
App
Tmp
°C
Dew
Point
°C
Rel
Hum
%
Delta-T

°C
Wind Press
QNH
hPa
Press
MSL
hPa
Rain
since
9 am
mm
Dir
 
Spd
km/h
Gust
km/h
Spd
kts
Gust
kts
19/11:30pm 5.4 2.9 4.5 94 0.4 ENE 7 11 4 6 - - 0.0
19/11:00pm 5.7 2.9 5.0 95 0.3 ENE 9 11 5 6 - - 0.0
19/10:30pm 5.6 3.1 4.7 94 0.4 ENE 7 11 4 6 - - 0.0
19/10:00pm 5.8 3.3 4.8 93 0.5 ENE 7 11 4 6 - - 0.0
19/09:30pm 5.9 3.0 4.7 92 0.6 ENE 9 13 5 7 - - 0.0
19/09:00pm 6.4 3.6 5.2 92 0.6 ENE 9 13 5 7 - - 0.0
19/08:30pm 6.7 4.0 5.5 92 0.6 ENE 9 15 5 8 - - 0.0
19/08:00pm 7.2 4.6 6.0 92 0.6 ENE 9 13 5 7 - - 0.0
19/07:30pm 7.5 4.9 6.0 90 0.7 ENE 9 13 5 7 - - 0.0
19/07:00pm 8.1 5.5 6.2 88 0.9 ENE 9 17 5 9 - - 0.0
19/06:30pm 8.8 6.3 6.4 85 1.2 ENE 9 13 5 7 - - 0.0
19/06:00pm 9.6 7.5 6.5 81 1.5 ENE 7 13 4 7 - - 0.0
19/05:30pm 11.3 8.8 1.8 52 4.3 SSW 4 15 2 8 - - 0.0
19/05:00pm 13.3 9.1 1.6 45 5.4 W 13 19 7 10 - - 0.0
19/04:30pm 14.2 9.9 0.8 40 6.1 W 13 17 7 9 - - 0.0
19/04:00pm 14.7 10.1 1.6 41 6.1 WSW 15 19 8 10 - - 0.0
19/03:30pm 14.7 9.2 -1.8 32 7.1 W 17 22 9 12 - - 0.0
19/03:00pm 14.9 10.2 1.1 39 6.3 W 15 22 8 12 - - 0.0
19/02:30pm 14.9 10.0 2.1 42 6.0 W 17 26 9 14 - - 0.0
19/02:00pm 15.1 10.7 4.5 49 5.2 WSW 17 24 9 13 - - 0.0
19/01:30pm 14.5 9.9 3.9 49 5.2 WSW 17 26 9 14 - - 0.0
19/01:00pm 14.3 9.9 4.6 52 4.8 W 17 26 9 14 - - 0.0
19/12:30pm 13.7 9.3 4.8 55 4.4 W 17 22 9 12 - - 0.0
19/12:00pm 13.3 8.9 4.7 56 4.2 WSW 17 24 9 13 - - 0.0
19/11:30am 13.0 8.4 5.4 60 3.8 WSW 19 28 10 15 - - 0.0
19/11:00am 12.5 8.1 4.5 58 3.9 WSW 17 28 9 15 - - 0.0
19/10:30am 11.9 7.2 5.1 63 3.3 W 19 28 10 15 - - 0.0
19/10:00am 11.4 6.6 5.5 67 2.9 W 20 32 11 17 - - 0.0
19/09:30am 10.9 6.3 6.6 75 2.2 W 20 30 11 16 - - 0.0
19/09:00am 10.4 6.7 6.4 76 2.0 W 15 20 8 11 - - 0.0
19/08:30am 10.0 6.3 6.3 78 1.8 W 15 20 8 11 - - 0.0
19/08:00am 9.2 5.7 7.2 87 1.0 W 15 20 8 11 - - 0.0
19/07:30am 8.4 4.8 6.9 90 0.7 W 15 20 8 11 - - 0.0
19/07:00am 7.8 3.4 6.4 91 0.7 W 19 24 10 13 - - 0.0
19/06:30am 8.4 4.7 6.5 88 0.9 W 15 20 8 11 - - 0.0
19/06:00am 8.7 4.2 6.3 85 1.2 W 19 26 10 14 - - 0.0
19/05:30am 9.0 5.0 6.6 85 1.2 W 17 24 9 13 - - 0.0
19/05:00am 9.0 5.5 7.0 87 1.0 W 15 24 8 13 - - 0.0
19/04:30am 8.9 5.2 6.5 85 1.2 W 15 24 8 13 - - 0.0
19/04:00am 9.0 5.8 6.8 86 1.1 W 13 17 7 9 - - 0.0
19/03:30am 9.1 5.5 6.7 85 1.2 W 15 20 8 11 - - 0.0
19/03:00am 9.0 5.7 6.4 84 1.3 W 13 20 7 11 - - 0.0
19/02:30am 9.5 5.1 6.6 82 1.4 WSW 19 24 10 13 - - 0.0
19/02:00am 9.7 5.3 6.6 81 1.5 WSW 19 24 10 13 - - 0.0
19/01:30am 10.3 5.4 6.8 79 1.8 WSW 22 30 12 16 - - 0.0
19/01:00am 10.4 5.8 6.5 77 1.9 WSW 20 30 11 16 - - 0.0
19/12:30am 10.4 5.8 6.5 77 1.9 WSW 20 28 11 15 - - 0.0
19/12:00am 10.5 5.9 6.3 75 2.1 W 20 30 11 16 - - 0.0
 
Date/Time
EST
Tmp

°C
App
Tmp
°C
Dew
Point
°C
Rel
Hum
%
Delta-T

°C
Wind Press
QNH
hPa
Press
MSL
hPa
Rain
since
9 am
mm
Dir
 
Spd
km/h
Gust
km/h
Spd
kts
Gust
kts
18/11:30pm 10.3 5.8 6.1 75 2.1 W 19 26 10 14 - - 0.0
18/11:00pm 11.2 5.4 6.1 71 2.5 WSW 26 37 14 20 - - 0.0
18/10:30pm 11.2 4.9 5.9 70 2.6 WSW 28 44 15 24 - - 0.0
18/10:00pm 11.7 6.2 6.0 68 2.8 WSW 24 33 13 18 - - 0.0
18/09:30pm 11.8 6.6 5.7 66 3.0 WSW 22 30 12 16 - - 0.0
18/09:00pm 12.1 5.8 5.7 65 3.2 WSW 28 39 15 21 - - 0.0
18/08:33pm 12.2 5.9 5.6 64 3.3 WSW 28 48 15 26 - - 0.0
18/08:30pm 12.0 5.7 5.6 65 3.2 WSW 28 43 15 23 - - 0.0
18/08:00pm 12.0 6.2 6.1 67 3.0 WSW 26 39 14 21 - - 0.0
18/07:30pm 11.8 6.5 6.7 71 2.6 WSW 24 37 13 20 - - 0.0
18/07:00pm 11.9 7.4 6.8 71 2.6 WSW 20 32 11 17 - - 0.0
18/06:30pm 12.4 7.1 6.7 68 2.9 W 24 35 13 19 - - 0.0
18/06:00pm 12.3 7.9 6.4 67 3.0 WSW 19 30 10 16 - - 0.0
18/05:30pm 12.7 8.0 6.1 64 3.3 WSW 20 30 11 16 - - 0.0
18/05:00pm 13.6 8.2 6.2 61 3.7 WSW 24 39 13 21 - - 0.0
18/04:34pm 13.5 7.2 5.7 59 3.9 WSW 28 46 15 25 - - 0.0
18/04:30pm 13.5 7.5 5.4 58 4.0 WSW 26 41 14 22 - - 0.0
18/04:00pm 14.6 8.3 5.7 55 4.5 WSW 28 41 15 22 - - 0.0
18/03:32pm 14.8 7.8 5.9 55 4.5 W 32 50 17 27 - - 0.0
18/03:30pm 14.8 7.7 5.6 54 4.6 W 32 48 17 26 - - 0.0
18/03:00pm 15.4 8.2 5.9 53 4.8 WSW 33 48 18 26 - - 0.0
18/02:30pm 15.6 8.3 5.5 51 5.1 WSW 33 50 18 27 - - 0.0
18/02:11pm 15.7 9.0 5.6 51 5.1 WSW 30 48 16 26 - - 0.0
18/02:00pm 16.3 10.2 6.4 52 5.1 WSW 28 43 15 23 - - 0.0
18/01:30pm 16.0 9.0 5.9 51 5.2 WSW 32 50 17 27 - - 0.0
18/01:05pm 16.0 9.0 5.9 51 5.2 WSW 32 50 17 27 - - 0.0
18/01:00pm 15.8 9.9 5.7 51 5.1 WSW 26 44 14 24 - - 0.0
18/12:30pm 15.0 9.7 6.8 58 4.2 W 24 33 13 18 - - 0.0
18/12:00pm 14.8 10.6 7.4 61 3.9 W 19 35 10 19 - - 0.0
18/11:30am 14.2 9.8 6.6 60 3.9 W 19 30 10 16 - - 0.0
18/11:00am 13.2 8.6 5.6 60 3.8 W 19 26 10 14 - - 0.0
18/10:30am 12.5 8.1 6.5 67 3.0 W 19 30 10 16 - - 0.0
18/10:00am 11.2 7.3 7.1 76 2.1 W 17 26 9 14 - - 0.0
18/09:30am 10.7 7.5 6.8 77 2.0 W 13 19 7 10 - - 0.0
18/09:00am 10.0 6.4 6.7 80 1.6 W 15 19 8 10 - - 0.2
18/08:30am 8.9 5.6 6.3 84 1.3 W 13 19 7 10 - - 0.2
18/08:00am 7.9 4.8 5.7 86 1.1 W 11 15 6 8 - - 0.2
18/07:30am 7.2 4.1 5.5 89 0.8 W 11 15 6 8 - - 0.2
18/07:00am 6.9 3.4 5.4 90 0.7 W 13 17 7 9 - - 0.2
18/06:30am 7.0 3.6 5.9 93 0.5 W 13 15 7 8 - - 0.2
18/06:00am 6.7 3.3 5.8 94 0.4 W 13 17 7 9 - - 0.2
18/05:30am 6.6 3.6 5.9 95 0.3 W 11 13 6 7 - - 0.2
18/05:00am 6.8 3.8 6.2 96 0.3 W 11 13 6 7 - - 0.2
18/04:30am 6.9 4.0 6.3 96 0.3 W 11 13 6 7 - - 0.0
18/04:05am 7.0 3.7 6.6 97 0.2 W 13 15 7 8 - - 0.0
18/04:00am 7.1 3.9 6.7 97 0.2 W 13 17 7 9 - - 0.0
18/03:30am 7.4 4.2 7.0 97 0.2 W 13 17 7 9 - - 0.0
18/03:27am 7.4 4.2 7.0 97 0.2 W 13 17 7 9 - - 0.0
18/03:07am 7.6 4.5 7.3 98 0.1 W 13 17 7 9 - - 0.0
18/03:00am 7.8 4.8 7.5 98 0.2 WSW 13 19 7 10 - - 0.0
18/02:30am 7.7 5.0 7.4 98 0.1 W 11 13 6 7 - - 0.0
18/02:00am 7.8 5.1 7.4 97 0.2 WSW 11 13 6 7 - - 0.0
18/01:30am 8.0 5.7 7.6 97 0.2 W 9 11 5 6 - - 0.0
18/01:19am 8.2 6.4 7.8 97 0.2 W 7 9 4 5 - - 0.0
18/01:05am 8.2 6.3 7.6 96 0.3 W 7 9 4 5 - - 0.0
18/01:00am 8.1 6.8 7.5 96 0.3 W 4 9 2 5 - - 0.0
18/12:51am 7.9 7.3 7.3 96 0.3 CALM 0 0 0 0 - - 0.0
18/12:30am 8.4 7.9 7.8 96 0.3 CALM 0 0 0 0 - - 0.0
18/12:03am 8.4 7.9 7.8 96 0.3 CALM 0 0 0 0 - - 0.0
18/12:00am 8.3 7.8 7.7 96 0.3 CALM 0 6 0 3 - - 0.0
 
Date/Time
EST
Tmp

°C
App
Tmp
°C
Dew
Point
°C
Rel
Hum
%
Delta-T

°C
Wind Press
QNH
hPa
Press
MSL
hPa
Rain
since
9 am
mm
Dir
 
Spd
km/h
Gust
km/h
Spd
kts
Gust
kts
17/11:54pm 8.3 7.8 7.7 96 0.3 CALM 0 6 0 3 - - 0.0
17/11:30pm 8.7 7.0 8.3 97 0.2 NE 7 9 4 5 - - 0.0
17/11:00pm 9.1 7.5 8.6 97 0.3 NE 7 11 4 6 - - 0.0
17/10:30pm 9.0 7.3 8.4 96 0.3 ENE 7 9 4 5 - - 0.0
17/10:27pm 8.9 7.4 8.3 96 0.3 ENE 6 9 3 5 - - 0.0
17/10:25pm 8.9 7.4 8.3 96 0.3 ENE 6 9 3 5 - - 0.0
17/10:09pm 9.1 7.4 8.5 96 0.3 ENE 7 9 4 5 - - 0.0
17/10:00pm 9.1 7.4 8.5 96 0.3 ENE 7 9 4 5 - - 0.0
17/09:48pm 9.3 7.7 8.7 96 0.3 ENE 7 9 4 5 - - 0.0
17/09:30pm 9.3 7.3 8.7 96 0.3 ENE 9 13 5 7 - - 0.0
17/09:21pm 9.2 7.1 8.4 95 0.4 ENE 9 13 5 7 - - 0.0
17/09:00pm 9.1 7.0 8.2 94 0.5 ENE 9 13 5 7 - - 0.0

Latest Capital City Observations: Canberra | Sydney | Melbourne | Brisbane | Adelaide | Perth | Hobart | Darwin

Other Formats:

Comma delimited format used in spreadsheet applications
http://www.bom.gov.au/fwo/IDN60901/IDN60901.94743.axf

JavaScript Object Notation format (JSON) in row-major order
http://www.bom.gov.au/fwo/IDN60901/IDN60901.94743.json